sensor_id;sensor_type;location;lat;lon;timestamp;P1;durP1;ratioP1;P2;durP2;ratioP2
32096;SDS011;18610;49.916;8.284;2022-12-18T00:02:00;110.13;;;38.05;;
32096;SDS011;18610;49.916;8.284;2022-12-18T00:04:28;109.78;;;37.67;;
32096;SDS011;18610;49.916;8.284;2022-12-18T00:06:55;112.43;;;37.45;;
32096;SDS011;18610;49.916;8.284;2022-12-18T00:09:22;104.15;;;37.05;;
32096;SDS011;18610;49.916;8.284;2022-12-18T00:11:48;105.07;;;37.75;;
32096;SDS011;18610;49.916;8.284;2022-12-18T00:14:16;115.28;;;39.30;;
32096;SDS011;18610;49.916;8.284;2022-12-18T00:16:44;95.68;;;35.72;;
32096;SDS011;18610;49.916;8.284;2022-12-18T00:19:11;95.05;;;35.83;;
32096;SDS011;18610;49.916;8.284;2022-12-18T00:21:39;105.80;;;35.38;;
32096;SDS011;18610;49.916;8.284;2022-12-18T00:24:07;96.10;;;35.97;;
32096;SDS011;18610;49.916;8.284;2022-12-18T00:26:34;102.72;;;38.58;;
32096;SDS011;18610;49.916;8.284;2022-12-18T00:29:03;107.22;;;38.08;;
32096;SDS011;18610;49.916;8.284;2022-12-18T00:31:34;106.63;;;36.15;;
32096;SDS011;18610;49.916;8.284;2022-12-18T00:34:01;97.50;;;36.92;;
32096;SDS011;18610;49.916;8.284;2022-12-18T00:36:29;103.38;;;35.17;;
32096;SDS011;18610;49.916;8.284;2022-12-18T00:38:57;107.05;;;37.15;;
32096;SDS011;18610;49.916;8.284;2022-12-18T00:41:25;107.55;;;35.50;;
32096;SDS011;18610;49.916;8.284;2022-12-18T00:44:10;111.38;;;38.72;;
32096;SDS011;18610;49.916;8.284;2022-12-18T00:46:40;116.13;;;39.53;;
32096;SDS011;18610;49.916;8.284;2022-12-18T00:49:07;104.25;;;36.67;;
32096;SDS011;18610;49.916;8.284;2022-12-18T00:51:34;111.35;;;39.05;;
32096;SDS011;18610;49.916;8.284;2022-12-18T00:54:01;112.07;;;39.72;;
32096;SDS011;18610;49.916;8.284;2022-12-18T00:56:28;104.15;;;37.03;;
32096;SDS011;18610;49.916;8.284;2022-12-18T00:58:57;118.00;;;36.88;;
32096;SDS011;18610;49.916;8.284;2022-12-18T01:01:24;111.90;;;39.08;;
32096;SDS011;18610;49.916;8.284;2022-12-18T01:03:53;105.18;;;35.75;;
32096;SDS011;18610;49.916;8.284;2022-12-18T01:06:19;93.35;;;35.25;;
32096;SDS011;18610;49.916;8.284;2022-12-18T01:08:46;98.22;;;34.78;;
32096;SDS011;18610;49.916;8.284;2022-12-18T01:11:14;87.10;;;32.75;;
32096;SDS011;18610;49.916;8.284;2022-12-18T01:13:42;97.32;;;37.75;;
32096;SDS011;18610;49.916;8.284;2022-12-18T01:16:10;108.40;;;35.58;;
32096;SDS011;18610;49.916;8.284;2022-12-18T01:18:38;98.63;;;32.90;;
32096;SDS011;18610;49.916;8.284;2022-12-18T01:21:07;93.80;;;33.10;;
32096;SDS011;18610;49.916;8.284;2022-12-18T01:23:35;87.35;;;30.58;;
32096;SDS011;18610;49.916;8.284;2022-12-18T01:26:05;85.18;;;31.33;;
32096;SDS011;18610;49.916;8.284;2022-12-18T01:28:33;83.03;;;30.20;;
32096;SDS011;18610;49.916;8.284;2022-12-18T01:31:09;88.05;;;33.58;;
32096;SDS011;18610;49.916;8.284;2022-12-18T01:33:37;77.80;;;29.27;;
32096;SDS011;18610;49.916;8.284;2022-12-18T01:36:04;79.25;;;28.60;;
32096;SDS011;18610;49.916;8.284;2022-12-18T01:38:32;72.60;;;27.27;;
32096;SDS011;18610;49.916;8.284;2022-12-18T01:40:59;76.93;;;30.42;;
32096;SDS011;18610;49.916;8.284;2022-12-18T01:43:40;68.78;;;28.15;;
32096;SDS011;18610;49.916;8.284;2022-12-18T01:46:11;76.93;;;31.35;;
32096;SDS011;18610;49.916;8.284;2022-12-18T01:48:39;78.80;;;26.65;;
32096;SDS011;18610;49.916;8.284;2022-12-18T01:51:07;68.82;;;26.70;;
32096;SDS011;18610;49.916;8.284;2022-12-18T01:53:37;69.75;;;25.83;;
32096;SDS011;18610;49.916;8.284;2022-12-18T01:56:06;69.35;;;26.50;;
32096;SDS011;18610;49.916;8.284;2022-12-18T01:58:35;78.75;;;27.17;;
32096;SDS011;18610;49.916;8.284;2022-12-18T02:01:07;70.53;;;27.08;;
32096;SDS011;18610;49.916;8.284;2022-12-18T02:03:34;66.13;;;26.65;;
32096;SDS011;18610;49.916;8.284;2022-12-18T02:06:03;66.25;;;25.38;;
32096;SDS011;18610;49.916;8.284;2022-12-18T02:08:37;60.38;;;27.30;;
32096;SDS011;18610;49.916;8.284;2022-12-18T02:11:14;62.40;;;23.83;;
32096;SDS011;18610;49.916;8.284;2022-12-18T02:13:52;70.07;;;25.05;;
32096;SDS011;18610;49.916;8.284;2022-12-18T02:16:25;71.97;;;27.02;;
32096;SDS011;18610;49.916;8.284;2022-12-18T02:19:01;65.43;;;24.75;;
32096;SDS011;18610;49.916;8.284;2022-12-18T02:21:44;69.68;;;25.52;;
32096;SDS011;18610;49.916;8.284;2022-12-18T02:24:32;60.60;;;24.55;;
32096;SDS011;18610;49.916;8.284;2022-12-18T02:27:06;65.93;;;25.65;;
32096;SDS011;18610;49.916;8.284;2022-12-18T02:29:36;63.75;;;25.70;;
32096;SDS011;18610;49.916;8.284;2022-12-18T02:32:09;71.88;;;25.42;;
32096;SDS011;18610;49.916;8.284;2022-12-18T02:34:40;69.22;;;28.15;;
32096;SDS011;18610;49.916;8.284;2022-12-18T02:37:10;67.10;;;24.63;;
32096;SDS011;18610;49.916;8.284;2022-12-18T02:39:41;57.28;;;23.20;;
32096;SDS011;18610;49.916;8.284;2022-12-18T02:42:11;64.95;;;24.20;;
32096;SDS011;18610;49.916;8.284;2022-12-18T02:44:41;61.80;;;22.52;;
32096;SDS011;18610;49.916;8.284;2022-12-18T02:47:09;51.90;;;22.25;;
32096;SDS011;18610;49.916;8.284;2022-12-18T02:49:40;60.63;;;24.45;;
32096;SDS011;18610;49.916;8.284;2022-12-18T02:52:15;60.40;;;23.08;;
32096;SDS011;18610;49.916;8.284;2022-12-18T02:54:55;66.07;;;22.92;;
32096;SDS011;18610;49.916;8.284;2022-12-18T02:57:34;56.92;;;21.77;;
32096;SDS011;18610;49.916;8.284;2022-12-18T03:00:04;57.78;;;24.13;;
32096;SDS011;18610;49.916;8.284;2022-12-18T03:02:36;70.43;;;25.40;;
32096;SDS011;18610;49.916;8.284;2022-12-18T03:05:07;70.03;;;22.42;;
32096;SDS011;18610;49.916;8.284;2022-12-18T03:07:41;55.60;;;23.45;;
32096;SDS011;18610;49.916;8.284;2022-12-18T03:12:42;58.08;;;21.27;;
32096;SDS011;18610;49.916;8.284;2022-12-18T03:15:13;57.67;;;22.50;;
32096;SDS011;18610;49.916;8.284;2022-12-18T03:20:12;62.80;;;23.23;;
32096;SDS011;18610;49.916;8.284;2022-12-18T03:22:43;57.80;;;22.00;;
32096;SDS011;18610;49.916;8.284;2022-12-18T03:25:13;56.45;;;21.67;;
32096;SDS011;18610;49.916;8.284;2022-12-18T03:27:44;59.22;;;21.90;;
32096;SDS011;18610;49.916;8.284;2022-12-18T03:30:14;54.50;;;21.00;;
32096;SDS011;18610;49.916;8.284;2022-12-18T03:32:42;49.30;;;20.92;;
32096;SDS011;18610;49.916;8.284;2022-12-18T03:35:14;57.20;;;22.42;;
32096;SDS011;18610;49.916;8.284;2022-12-18T03:37:45;53.08;;;20.27;;
32096;SDS011;18610;49.916;8.284;2022-12-18T03:40:12;64.95;;;22.27;;
32096;SDS011;18610;49.916;8.284;2022-12-18T03:42:41;55.85;;;19.05;;
32096;SDS011;18610;49.916;8.284;2022-12-18T03:45:18;48.45;;;21.58;;
32096;SDS011;18610;49.916;8.284;2022-12-18T03:47:53;61.55;;;21.50;;
32096;SDS011;18610;49.916;8.284;2022-12-18T03:50:27;47.45;;;19.15;;
32096;SDS011;18610;49.916;8.284;2022-12-18T03:53:03;51.92;;;19.85;;
32096;SDS011;18610;49.916;8.284;2022-12-18T03:55:40;50.97;;;20.63;;
32096;SDS011;18610;49.916;8.284;2022-12-18T03:58:10;49.05;;;21.60;;
32096;SDS011;18610;49.916;8.284;2022-12-18T04:00:42;45.30;;;18.60;;
32096;SDS011;18610;49.916;8.284;2022-12-18T04:03:09;53.88;;;20.27;;
32096;SDS011;18610;49.916;8.284;2022-12-18T04:05:38;51.40;;;19.83;;
32096;SDS011;18610;49.916;8.284;2022-12-18T04:08:07;52.83;;;20.23;;
32096;SDS011;18610;49.916;8.284;2022-12-18T04:10:37;50.65;;;20.30;;
32096;SDS011;18610;49.916;8.284;2022-12-18T04:13:04;50.22;;;21.13;;
32096;SDS011;18610;49.916;8.284;2022-12-18T04:15:32;50.05;;;20.83;;
32096;SDS011;18610;49.916;8.284;2022-12-18T04:18:02;57.00;;;20.52;;
32096;SDS011;18610;49.916;8.284;2022-12-18T04:20:29;44.83;;;19.35;;
32096;SDS011;18610;49.916;8.284;2022-12-18T04:22:56;53.15;;;21.95;;
32096;SDS011;18610;49.916;8.284;2022-12-18T04:25:22;48.85;;;19.98;;
32096;SDS011;18610;49.916;8.284;2022-12-18T04:27:49;44.85;;;19.13;;
32096;SDS011;18610;49.916;8.284;2022-12-18T04:30:16;55.28;;;22.02;;
32096;SDS011;18610;49.916;8.284;2022-12-18T04:32:44;47.13;;;20.27;;
32096;SDS011;18610;49.916;8.284;2022-12-18T04:35:11;50.88;;;20.38;;
32096;SDS011;18610;49.916;8.284;2022-12-18T04:37:38;47.00;;;21.30;;
32096;SDS011;18610;49.916;8.284;2022-12-18T04:40:05;58.45;;;22.80;;
32096;SDS011;18610;49.916;8.284;2022-12-18T04:42:33;49.40;;;21.25;;
32096;SDS011;18610;49.916;8.284;2022-12-18T04:44:59;54.17;;;21.10;;
32096;SDS011;18610;49.916;8.284;2022-12-18T04:47:26;50.75;;;21.15;;
32096;SDS011;18610;49.916;8.284;2022-12-18T04:49:55;55.10;;;20.85;;
32096;SDS011;18610;49.916;8.284;2022-12-18T04:52:21;45.83;;;20.00;;
32096;SDS011;18610;49.916;8.284;2022-12-18T04:54:48;49.95;;;21.05;;
32096;SDS011;18610;49.916;8.284;2022-12-18T04:57:15;57.88;;;22.23;;
32096;SDS011;18610;49.916;8.284;2022-12-18T04:59:43;53.42;;;22.27;;
32096;SDS011;18610;49.916;8.284;2022-12-18T05:02:10;52.45;;;21.45;;
32096;SDS011;18610;49.916;8.284;2022-12-18T05:04:36;51.72;;;22.48;;
32096;SDS011;18610;49.916;8.284;2022-12-18T05:07:05;52.70;;;20.88;;
32096;SDS011;18610;49.916;8.284;2022-12-18T05:09:31;62.05;;;22.30;;
32096;SDS011;18610;49.916;8.284;2022-12-18T05:11:58;54.08;;;22.48;;
32096;SDS011;18610;49.916;8.284;2022-12-18T05:14:25;61.85;;;23.38;;
32096;SDS011;18610;49.916;8.284;2022-12-18T05:16:52;57.67;;;22.17;;
32096;SDS011;18610;49.916;8.284;2022-12-18T05:19:19;58.10;;;23.98;;
32096;SDS011;18610;49.916;8.284;2022-12-18T05:21:45;60.25;;;23.90;;
32096;SDS011;18610;49.916;8.284;2022-12-18T05:24:14;55.40;;;21.95;;
32096;SDS011;18610;49.916;8.284;2022-12-18T05:26:40;47.03;;;20.45;;
32096;SDS011;18610;49.916;8.284;2022-12-18T05:29:07;53.88;;;22.80;;
32096;SDS011;18610;49.916;8.284;2022-12-18T05:31:37;48.75;;;21.20;;
32096;SDS011;18610;49.916;8.284;2022-12-18T05:34:04;54.05;;;21.70;;
32096;SDS011;18610;49.916;8.284;2022-12-18T05:36:31;53.42;;;21.67;;
32096;SDS011;18610;49.916;8.284;2022-12-18T05:38:57;52.90;;;21.33;;
32096;SDS011;18610;49.916;8.284;2022-12-18T05:41:26;58.83;;;23.20;;
32096;SDS011;18610;49.916;8.284;2022-12-18T05:43:53;57.13;;;22.42;;
32096;SDS011;18610;49.916;8.284;2022-12-18T05:46:20;60.92;;;23.25;;
32096;SDS011;18610;49.916;8.284;2022-12-18T05:48:47;55.95;;;23.20;;
32096;SDS011;18610;49.916;8.284;2022-12-18T05:51:15;55.75;;;23.17;;
32096;SDS011;18610;49.916;8.284;2022-12-18T05:53:44;54.75;;;23.25;;
32096;SDS011;18610;49.916;8.284;2022-12-18T05:56:12;59.45;;;24.65;;
32096;SDS011;18610;49.916;8.284;2022-12-18T05:58:41;49.80;;;21.70;;
32096;SDS011;18610;49.916;8.284;2022-12-18T06:01:09;56.53;;;22.15;;
32096;SDS011;18610;49.916;8.284;2022-12-18T06:03:37;50.78;;;22.30;;
32096;SDS011;18610;49.916;8.284;2022-12-18T06:06:11;49.55;;;21.35;;
32096;SDS011;18610;49.916;8.284;2022-12-18T06:08:39;55.28;;;22.67;;
32096;SDS011;18610;49.916;8.284;2022-12-18T06:11:06;56.13;;;21.42;;
32096;SDS011;18610;49.916;8.284;2022-12-18T06:13:33;53.55;;;21.23;;
32096;SDS011;18610;49.916;8.284;2022-12-18T06:16:02;52.20;;;21.45;;
32096;SDS011;18610;49.916;8.284;2022-12-18T06:18:30;59.28;;;22.35;;
32096;SDS011;18610;49.916;8.284;2022-12-18T06:20:57;54.63;;;21.75;;
32096;SDS011;18610;49.916;8.284;2022-12-18T06:23:24;62.42;;;22.75;;
32096;SDS011;18610;49.916;8.284;2022-12-18T06:25:51;48.55;;;20.27;;
32096;SDS011;18610;49.916;8.284;2022-12-18T06:28:18;65.15;;;24.92;;
32096;SDS011;18610;49.916;8.284;2022-12-18T06:30:46;48.45;;;21.05;;
32096;SDS011;18610;49.916;8.284;2022-12-18T06:33:15;49.28;;;21.27;;
32096;SDS011;18610;49.916;8.284;2022-12-18T06:35:42;56.50;;;21.23;;
32096;SDS011;18610;49.916;8.284;2022-12-18T06:38:08;56.85;;;23.25;;
32096;SDS011;18610;49.916;8.284;2022-12-18T06:40:36;54.85;;;22.05;;
32096;SDS011;18610;49.916;8.284;2022-12-18T06:43:03;56.13;;;22.20;;
32096;SDS011;18610;49.916;8.284;2022-12-18T06:45:30;56.80;;;22.05;;
32096;SDS011;18610;49.916;8.284;2022-12-18T06:47:57;60.75;;;22.05;;
32096;SDS011;18610;49.916;8.284;2022-12-18T06:50:25;59.88;;;22.67;;
32096;SDS011;18610;49.916;8.284;2022-12-18T06:52:52;55.63;;;21.85;;
32096;SDS011;18610;49.916;8.284;2022-12-18T06:55:19;52.72;;;22.13;;
32096;SDS011;18610;49.916;8.284;2022-12-18T06:57:45;53.97;;;22.95;;
32096;SDS011;18610;49.916;8.284;2022-12-18T07:00:12;56.67;;;22.67;;
32096;SDS011;18610;49.916;8.284;2022-12-18T07:02:40;57.53;;;21.92;;
32096;SDS011;18610;49.916;8.284;2022-12-18T07:05:06;61.25;;;23.27;;
32096;SDS011;18610;49.916;8.284;2022-12-18T07:07:35;57.63;;;23.67;;
32096;SDS011;18610;49.916;8.284;2022-12-18T07:10:02;65.35;;;23.92;;
32096;SDS011;18610;49.916;8.284;2022-12-18T07:12:29;64.75;;;25.25;;
32096;SDS011;18610;49.916;8.284;2022-12-18T07:14:56;77.55;;;28.27;;
32096;SDS011;18610;49.916;8.284;2022-12-18T07:17:23;77.47;;;29.55;;
32096;SDS011;18610;49.916;8.284;2022-12-18T07:19:49;72.35;;;27.83;;
32096;SDS011;18610;49.916;8.284;2022-12-18T07:22:16;70.75;;;27.58;;
32096;SDS011;18610;49.916;8.284;2022-12-18T07:24:44;63.53;;;24.00;;
32096;SDS011;18610;49.916;8.284;2022-12-18T07:27:11;66.97;;;24.23;;
32096;SDS011;18610;49.916;8.284;2022-12-18T07:29:38;63.42;;;23.70;;
32096;SDS011;18610;49.916;8.284;2022-12-18T07:32:05;54.55;;;22.63;;
32096;SDS011;18610;49.916;8.284;2022-12-18T07:34:33;52.10;;;22.27;;
32096;SDS011;18610;49.916;8.284;2022-12-18T07:37:00;59.83;;;24.80;;
32096;SDS011;18610;49.916;8.284;2022-12-18T07:39:27;52.33;;;23.20;;
32096;SDS011;18610;49.916;8.284;2022-12-18T07:41:55;57.95;;;24.17;;
32096;SDS011;18610;49.916;8.284;2022-12-18T07:44:47;75.32;;;29.13;;
32096;SDS011;18610;49.916;8.284;2022-12-18T07:47:14;70.28;;;29.00;;
32096;SDS011;18610;49.916;8.284;2022-12-18T07:49:41;84.82;;;31.30;;
32096;SDS011;18610;49.916;8.284;2022-12-18T07:52:07;81.75;;;29.60;;
32096;SDS011;18610;49.916;8.284;2022-12-18T07:54:34;70.65;;;28.05;;
32096;SDS011;18610;49.916;8.284;2022-12-18T07:57:02;62.83;;;25.00;;
32096;SDS011;18610;49.916;8.284;2022-12-18T07:59:29;63.47;;;24.85;;
32096;SDS011;18610;49.916;8.284;2022-12-18T08:01:56;58.95;;;23.42;;
32096;SDS011;18610;49.916;8.284;2022-12-18T08:04:23;62.58;;;26.98;;
32096;SDS011;18610;49.916;8.284;2022-12-18T08:06:50;66.60;;;25.60;;
32096;SDS011;18610;49.916;8.284;2022-12-18T08:09:17;57.95;;;24.83;;
32096;SDS011;18610;49.916;8.284;2022-12-18T08:11:44;58.10;;;24.02;;
32096;SDS011;18610;49.916;8.284;2022-12-18T08:14:12;58.60;;;25.60;;
32096;SDS011;18610;49.916;8.284;2022-12-18T08:16:39;64.30;;;25.15;;
32096;SDS011;18610;49.916;8.284;2022-12-18T08:19:06;65.60;;;25.27;;
32096;SDS011;18610;49.916;8.284;2022-12-18T08:21:33;69.53;;;27.50;;
32096;SDS011;18610;49.916;8.284;2022-12-18T08:24:00;72.97;;;28.00;;
32096;SDS011;18610;49.916;8.284;2022-12-18T08:26:28;69.35;;;30.25;;
32096;SDS011;18610;49.916;8.284;2022-12-18T08:28:57;69.85;;;29.58;;
32096;SDS011;18610;49.916;8.284;2022-12-18T08:31:27;75.90;;;29.35;;
32096;SDS011;18610;49.916;8.284;2022-12-18T08:33:55;73.63;;;30.52;;
32096;SDS011;18610;49.916;8.284;2022-12-18T08:36:23;65.60;;;29.80;;
32096;SDS011;18610;49.916;8.284;2022-12-18T08:38:50;71.53;;;29.67;;
32096;SDS011;18610;49.916;8.284;2022-12-18T08:41:17;68.28;;;28.75;;
32096;SDS011;18610;49.916;8.284;2022-12-18T08:43:44;79.72;;;30.23;;
32096;SDS011;18610;49.916;8.284;2022-12-18T08:46:33;75.30;;;29.52;;
32096;SDS011;18610;49.916;8.284;2022-12-18T08:51:28;64.68;;;27.88;;
32096;SDS011;18610;49.916;8.284;2022-12-18T08:53:55;66.03;;;28.70;;
32096;SDS011;18610;49.916;8.284;2022-12-18T08:56:22;73.20;;;31.40;;
32096;SDS011;18610;49.916;8.284;2022-12-18T08:58:51;79.28;;;34.13;;
32096;SDS011;18610;49.916;8.284;2022-12-18T09:01:18;70.75;;;30.10;;
32096;SDS011;18610;49.916;8.284;2022-12-18T09:03:47;58.28;;;25.35;;
32096;SDS011;18610;49.916;8.284;2022-12-18T09:06:14;63.42;;;27.13;;
32096;SDS011;18610;49.916;8.284;2022-12-18T09:08:42;61.05;;;27.48;;
32096;SDS011;18610;49.916;8.284;2022-12-18T09:11:11;63.75;;;27.85;;
32096;SDS011;18610;49.916;8.284;2022-12-18T09:13:40;60.60;;;26.50;;
32096;SDS011;18610;49.916;8.284;2022-12-18T09:16:07;65.20;;;28.67;;
32096;SDS011;18610;49.916;8.284;2022-12-18T09:18:33;66.40;;;29.02;;
32096;SDS011;18610;49.916;8.284;2022-12-18T09:21:08;62.38;;;28.17;;
32096;SDS011;18610;49.916;8.284;2022-12-18T09:23:35;65.07;;;27.33;;
32096;SDS011;18610;49.916;8.284;2022-12-18T09:26:02;62.03;;;29.02;;
32096;SDS011;18610;49.916;8.284;2022-12-18T09:28:29;65.43;;;28.85;;
32096;SDS011;18610;49.916;8.284;2022-12-18T09:30:56;71.20;;;30.17;;
32096;SDS011;18610;49.916;8.284;2022-12-18T09:33:22;67.20;;;28.98;;
32096;SDS011;18610;49.916;8.284;2022-12-18T09:35:49;62.38;;;28.02;;
32096;SDS011;18610;49.916;8.284;2022-12-18T09:38:18;61.97;;;27.95;;
32096;SDS011;18610;49.916;8.284;2022-12-18T09:40:46;69.95;;;30.45;;
32096;SDS011;18610;49.916;8.284;2022-12-18T09:43:17;65.38;;;28.98;;
32096;SDS011;18610;49.916;8.284;2022-12-18T09:45:47;67.10;;;29.70;;
32096;SDS011;18610;49.916;8.284;2022-12-18T09:48:18;70.72;;;29.05;;
32096;SDS011;18610;49.916;8.284;2022-12-18T09:50:48;66.75;;;28.08;;
32096;SDS011;18610;49.916;8.284;2022-12-18T09:53:18;67.68;;;28.90;;
32096;SDS011;18610;49.916;8.284;2022-12-18T09:55:48;69.13;;;29.58;;
32096;SDS011;18610;49.916;8.284;2022-12-18T09:58:19;61.38;;;29.48;;
32096;SDS011;18610;49.916;8.284;2022-12-18T10:00:52;67.35;;;29.02;;
32096;SDS011;18610;49.916;8.284;2022-12-18T10:03:19;63.50;;;28.63;;
32096;SDS011;18610;49.916;8.284;2022-12-18T10:05:49;68.55;;;28.88;;
32096;SDS011;18610;49.916;8.284;2022-12-18T10:08:26;70.18;;;31.27;;
32096;SDS011;18610;49.916;8.284;2022-12-18T10:11:01;72.95;;;29.33;;
32096;SDS011;18610;49.916;8.284;2022-12-18T10:13:38;59.08;;;28.42;;
32096;SDS011;18610;49.916;8.284;2022-12-18T10:16:13;72.53;;;30.48;;
32096;SDS011;18610;49.916;8.284;2022-12-18T10:18:52;62.22;;;28.98;;
32096;SDS011;18610;49.916;8.284;2022-12-18T10:21:31;72.32;;;30.33;;
32096;SDS011;18610;49.916;8.284;2022-12-18T10:24:08;63.65;;;29.45;;
32096;SDS011;18610;49.916;8.284;2022-12-18T10:26:44;63.70;;;29.58;;
32096;SDS011;18610;49.916;8.284;2022-12-18T10:29:13;62.63;;;30.00;;
32096;SDS011;18610;49.916;8.284;2022-12-18T10:31:41;62.38;;;29.25;;
32096;SDS011;18610;49.916;8.284;2022-12-18T10:34:09;68.32;;;29.23;;
32096;SDS011;18610;49.916;8.284;2022-12-18T10:36:36;63.63;;;29.88;;
32096;SDS011;18610;49.916;8.284;2022-12-18T10:39:15;71.25;;;31.27;;
32096;SDS011;18610;49.916;8.284;2022-12-18T10:41:43;62.65;;;30.20;;
32096;SDS011;18610;49.916;8.284;2022-12-18T10:44:11;68.78;;;29.55;;
32096;SDS011;18610;49.916;8.284;2022-12-18T10:46:41;67.57;;;30.00;;
32096;SDS011;18610;49.916;8.284;2022-12-18T10:49:18;65.40;;;29.40;;
32096;SDS011;18610;49.916;8.284;2022-12-18T10:51:47;67.55;;;31.23;;
32096;SDS011;18610;49.916;8.284;2022-12-18T10:54:16;64.88;;;29.75;;
32096;SDS011;18610;49.916;8.284;2022-12-18T10:56:44;67.65;;;29.83;;
32096;SDS011;18610;49.916;8.284;2022-12-18T10:59:12;62.15;;;30.13;;
32096;SDS011;18610;49.916;8.284;2022-12-18T11:01:47;68.20;;;31.20;;
32096;SDS011;18610;49.916;8.284;2022-12-18T11:04:17;64.47;;;30.58;;
32096;SDS011;18610;49.916;8.284;2022-12-18T11:09:37;66.53;;;30.92;;
32096;SDS011;18610;49.916;8.284;2022-12-18T11:12:08;69.80;;;31.17;;
32096;SDS011;18610;49.916;8.284;2022-12-18T11:14:42;68.80;;;30.77;;
32096;SDS011;18610;49.916;8.284;2022-12-18T11:17:18;70.18;;;31.00;;
32096;SDS011;18610;49.916;8.284;2022-12-18T11:19:51;67.38;;;31.98;;
32096;SDS011;18610;49.916;8.284;2022-12-18T11:22:19;72.32;;;34.08;;
32096;SDS011;18610;49.916;8.284;2022-12-18T11:24:54;70.25;;;32.22;;
32096;SDS011;18610;49.916;8.284;2022-12-18T11:27:25;75.43;;;33.63;;
32096;SDS011;18610;49.916;8.284;2022-12-18T11:29:52;77.15;;;33.05;;
32096;SDS011;18610;49.916;8.284;2022-12-18T11:32:33;74.38;;;34.15;;
32096;SDS011;18610;49.916;8.284;2022-12-18T11:35:04;69.07;;;32.63;;
32096;SDS011;18610;49.916;8.284;2022-12-18T11:37:41;71.50;;;32.90;;
32096;SDS011;18610;49.916;8.284;2022-12-18T11:40:14;73.60;;;34.17;;
32096;SDS011;18610;49.916;8.284;2022-12-18T11:42:45;79.45;;;33.85;;
32096;SDS011;18610;49.916;8.284;2022-12-18T11:45:25;70.13;;;33.20;;
32096;SDS011;18610;49.916;8.284;2022-12-18T11:47:56;78.78;;;34.17;;
32096;SDS011;18610;49.916;8.284;2022-12-18T11:50:30;74.60;;;32.33;;
32096;SDS011;18610;49.916;8.284;2022-12-18T11:53:00;75.85;;;36.03;;
32096;SDS011;18610;49.916;8.284;2022-12-18T11:55:31;82.75;;;35.15;;
32096;SDS011;18610;49.916;8.284;2022-12-18T11:58:07;72.32;;;33.17;;
32096;SDS011;18610;49.916;8.284;2022-12-18T12:00:43;77.18;;;34.58;;
32096;SDS011;18610;49.916;8.284;2022-12-18T12:03:20;78.03;;;34.92;;
32096;SDS011;18610;49.916;8.284;2022-12-18T12:05:56;75.75;;;34.50;;
32096;SDS011;18610;49.916;8.284;2022-12-18T12:08:31;74.85;;;34.58;;
32096;SDS011;18610;49.916;8.284;2022-12-18T12:11:08;81.25;;;35.30;;
32096;SDS011;18610;49.916;8.284;2022-12-18T12:13:44;78.30;;;35.08;;
32096;SDS011;18610;49.916;8.284;2022-12-18T12:16:27;79.10;;;35.63;;
32096;SDS011;18610;49.916;8.284;2022-12-18T12:19:02;79.50;;;37.75;;
32096;SDS011;18610;49.916;8.284;2022-12-18T12:21:43;82.75;;;36.80;;
32096;SDS011;18610;49.916;8.284;2022-12-18T12:24:19;85.93;;;38.83;;
32096;SDS011;18610;49.916;8.284;2022-12-18T12:27:00;77.93;;;32.97;;
32096;SDS011;18610;49.916;8.284;2022-12-18T12:29:37;77.78;;;35.22;;
32096;SDS011;18610;49.916;8.284;2022-12-18T12:32:17;79.07;;;34.88;;
32096;SDS011;18610;49.916;8.284;2022-12-18T12:34:56;86.93;;;38.20;;
32096;SDS011;18610;49.916;8.284;2022-12-18T12:37:33;80.82;;;38.78;;
32096;SDS011;18610;49.916;8.284;2022-12-18T12:40:10;86.55;;;38.40;;
32096;SDS011;18610;49.916;8.284;2022-12-18T12:42:42;86.28;;;35.58;;
32096;SDS011;18610;49.916;8.284;2022-12-18T12:45:33;89.43;;;36.80;;
32096;SDS011;18610;49.916;8.284;2022-12-18T12:48:03;83.45;;;36.67;;
32096;SDS011;18610;49.916;8.284;2022-12-18T12:50:37;90.47;;;38.28;;
32096;SDS011;18610;49.916;8.284;2022-12-18T12:53:05;81.78;;;37.45;;
32096;SDS011;18610;49.916;8.284;2022-12-18T12:55:35;87.90;;;36.75;;
32096;SDS011;18610;49.916;8.284;2022-12-18T12:58:05;82.43;;;37.33;;
32096;SDS011;18610;49.916;8.284;2022-12-18T13:00:39;80.28;;;36.22;;
32096;SDS011;18610;49.916;8.284;2022-12-18T13:03:14;90.75;;;36.58;;
32096;SDS011;18610;49.916;8.284;2022-12-18T13:05:50;93.82;;;38.30;;
32096;SDS011;18610;49.916;8.284;2022-12-18T13:08:22;77.97;;;35.83;;
32096;SDS011;18610;49.916;8.284;2022-12-18T13:10:50;89.10;;;36.78;;
32096;SDS011;18610;49.916;8.284;2022-12-18T13:13:49;80.68;;;35.88;;
32096;SDS011;18610;49.916;8.284;2022-12-18T13:16:17;76.65;;;35.97;;
32096;SDS011;18610;49.916;8.284;2022-12-18T13:18:49;92.72;;;37.33;;
32096;SDS011;18610;49.916;8.284;2022-12-18T13:21:20;88.95;;;35.60;;
32096;SDS011;18610;49.916;8.284;2022-12-18T13:23:49;84.38;;;36.33;;
32096;SDS011;18610;49.916;8.284;2022-12-18T13:26:30;85.68;;;35.00;;
32096;SDS011;18610;49.916;8.284;2022-12-18T13:28:59;83.88;;;36.33;;
32096;SDS011;18610;49.916;8.284;2022-12-18T13:34:34;81.68;;;33.90;;
32096;SDS011;18610;49.916;8.284;2022-12-18T13:43:22;96.63;;;40.50;;
32096;SDS011;18610;49.916;8.284;2022-12-18T13:46:01;89.47;;;37.05;;
32096;SDS011;18610;49.916;8.284;2022-12-18T13:48:31;79.90;;;35.15;;
32096;SDS011;18610;49.916;8.284;2022-12-18T13:51:00;86.05;;;37.20;;
32096;SDS011;18610;49.916;8.284;2022-12-18T13:53:30;84.50;;;35.70;;
32096;SDS011;18610;49.916;8.284;2022-12-18T13:56:04;88.15;;;36.83;;
32096;SDS011;18610;49.916;8.284;2022-12-18T13:58:31;85.20;;;34.75;;
32096;SDS011;18610;49.916;8.284;2022-12-18T14:00:59;90.68;;;36.05;;
32096;SDS011;18610;49.916;8.284;2022-12-18T14:03:29;88.38;;;36.72;;
32096;SDS011;18610;49.916;8.284;2022-12-18T14:06:00;89.20;;;38.00;;
32096;SDS011;18610;49.916;8.284;2022-12-18T14:08:33;92.03;;;37.55;;
32096;SDS011;18610;49.916;8.284;2022-12-18T14:11:03;84.03;;;37.30;;
32096;SDS011;18610;49.916;8.284;2022-12-18T14:13:32;84.22;;;36.65;;
32096;SDS011;18610;49.916;8.284;2022-12-18T14:16:03;83.75;;;37.40;;
32096;SDS011;18610;49.916;8.284;2022-12-18T14:18:36;84.87;;;37.63;;
32096;SDS011;18610;49.916;8.284;2022-12-18T14:21:13;92.22;;;39.00;;
32096;SDS011;18610;49.916;8.284;2022-12-18T14:23:44;89.95;;;38.42;;
32096;SDS011;18610;49.916;8.284;2022-12-18T14:26:21;93.78;;;38.03;;
32096;SDS011;18610;49.916;8.284;2022-12-18T14:28:50;92.88;;;36.00;;
32096;SDS011;18610;49.916;8.284;2022-12-18T14:31:20;87.72;;;35.33;;
32096;SDS011;18610;49.916;8.284;2022-12-18T14:33:49;90.88;;;35.25;;
32096;SDS011;18610;49.916;8.284;2022-12-18T14:36:17;95.53;;;35.78;;
32096;SDS011;18610;49.916;8.284;2022-12-18T14:38:48;103.75;;;39.60;;
32096;SDS011;18610;49.916;8.284;2022-12-18T14:41:16;87.07;;;33.33;;
32096;SDS011;18610;49.916;8.284;2022-12-18T14:43:45;85.35;;;32.88;;
32096;SDS011;18610;49.916;8.284;2022-12-18T14:46:28;82.20;;;34.40;;
32096;SDS011;18610;49.916;8.284;2022-12-18T14:49:00;95.53;;;36.05;;
32096;SDS011;18610;49.916;8.284;2022-12-18T14:51:30;98.97;;;37.83;;
32096;SDS011;18610;49.916;8.284;2022-12-18T14:53:59;91.38;;;36.20;;
32096;SDS011;18610;49.916;8.284;2022-12-18T14:56:28;95.53;;;36.42;;
32096;SDS011;18610;49.916;8.284;2022-12-18T14:58:57;101.53;;;39.55;;